sensor_id;sensor_type;location;lat;lon;timestamp;P1;durP1;ratioP1;P2;durP2;ratioP2
19260;SDS011;9764;48.114;11.670;2022-10-31T00:00:59;3.83;;;2.20;;
19260;SDS011;9764;48.114;11.670;2022-10-31T00:03:29;3.22;;;2.08;;
19260;SDS011;9764;48.114;11.670;2022-10-31T00:05:58;3.17;;;2.20;;
19260;SDS011;9764;48.114;11.670;2022-10-31T00:08:28;4.45;;;2.50;;
19260;SDS011;9764;48.114;11.670;2022-10-31T00:10:56;2.85;;;2.10;;
19260;SDS011;9764;48.114;11.670;2022-10-31T00:13:24;2.35;;;1.85;;
19260;SDS011;9764;48.114;11.670;2022-10-31T00:15:52;2.83;;;2.10;;
19260;SDS011;9764;48.114;11.670;2022-10-31T00:18:21;3.67;;;2.22;;
19260;SDS011;9764;48.114;11.670;2022-10-31T00:20:50;3.28;;;2.20;;
19260;SDS011;9764;48.114;11.670;2022-10-31T00:23:26;6.20;;;2.15;;
19260;SDS011;9764;48.114;11.670;2022-10-31T00:25:54;6.75;;;2.78;;
19260;SDS011;9764;48.114;11.670;2022-10-31T00:28:28;6.30;;;2.33;;
19260;SDS011;9764;48.114;11.670;2022-10-31T00:30:58;3.70;;;2.10;;
19260;SDS011;9764;48.114;11.670;2022-10-31T00:33:27;5.18;;;2.65;;
19260;SDS011;9764;48.114;11.670;2022-10-31T00:35:57;2.28;;;2.08;;
19260;SDS011;9764;48.114;11.670;2022-10-31T00:38:25;4.80;;;2.55;;
19260;SDS011;9764;48.114;11.670;2022-10-31T00:40:54;4.53;;;2.30;;
19260;SDS011;9764;48.114;11.670;2022-10-31T00:43:22;2.95;;;2.22;;
19260;SDS011;9764;48.114;11.670;2022-10-31T00:45:50;3.67;;;2.33;;
19260;SDS011;9764;48.114;11.670;2022-10-31T00:48:23;3.00;;;2.30;;
19260;SDS011;9764;48.114;11.670;2022-10-31T00:50:55;4.80;;;2.55;;
19260;SDS011;9764;48.114;11.670;2022-10-31T00:53:25;2.75;;;2.33;;
19260;SDS011;9764;48.114;11.670;2022-10-31T00:55:54;5.90;;;2.30;;
19260;SDS011;9764;48.114;11.670;2022-10-31T00:58:23;5.00;;;2.38;;
19260;SDS011;9764;48.114;11.670;2022-10-31T01:00:51;2.95;;;2.20;;
19260;SDS011;9764;48.114;11.670;2022-10-31T01:03:22;4.38;;;2.13;;
19260;SDS011;9764;48.114;11.670;2022-10-31T01:05:55;4.97;;;2.30;;
19260;SDS011;9764;48.114;11.670;2022-10-31T01:08:27;5.70;;;2.78;;
19260;SDS011;9764;48.114;11.670;2022-10-31T01:11:04;3.30;;;2.00;;
19260;SDS011;9764;48.114;11.670;2022-10-31T01:13:35;4.53;;;2.30;;
19260;SDS011;9764;48.114;11.670;2022-10-31T01:16:04;3.67;;;2.10;;
19260;SDS011;9764;48.114;11.670;2022-10-31T01:18:34;4.82;;;2.22;;
19260;SDS011;9764;48.114;11.670;2022-10-31T01:21:05;4.50;;;2.97;;
19260;SDS011;9764;48.114;11.670;2022-10-31T01:23:34;4.75;;;2.08;;
19260;SDS011;9764;48.114;11.670;2022-10-31T01:26:05;3.95;;;2.42;;
19260;SDS011;9764;48.114;11.670;2022-10-31T01:28:36;3.20;;;1.92;;
19260;SDS011;9764;48.114;11.670;2022-10-31T01:31:06;3.83;;;2.20;;
19260;SDS011;9764;48.114;11.670;2022-10-31T01:33:36;4.55;;;2.30;;
19260;SDS011;9764;48.114;11.670;2022-10-31T01:36:13;7.90;;;2.83;;
19260;SDS011;9764;48.114;11.670;2022-10-31T01:38:44;5.75;;;2.42;;
19260;SDS011;9764;48.114;11.670;2022-10-31T01:41:13;3.70;;;2.00;;
19260;SDS011;9764;48.114;11.670;2022-10-31T01:43:47;4.25;;;2.50;;
19260;SDS011;9764;48.114;11.670;2022-10-31T01:46:19;4.47;;;2.47;;
19260;SDS011;9764;48.114;11.670;2022-10-31T01:48:52;3.80;;;2.10;;
19260;SDS011;9764;48.114;11.670;2022-10-31T01:51:24;3.08;;;1.88;;
19260;SDS011;9764;48.114;11.670;2022-10-31T01:53:58;4.65;;;2.38;;
19260;SDS011;9764;48.114;11.670;2022-10-31T01:56:29;4.20;;;2.10;;
19260;SDS011;9764;48.114;11.670;2022-10-31T01:58:59;3.95;;;2.10;;
19260;SDS011;9764;48.114;11.670;2022-10-31T02:01:29;5.30;;;2.58;;
19260;SDS011;9764;48.114;11.670;2022-10-31T02:03:57;5.55;;;2.08;;
19260;SDS011;9764;48.114;11.670;2022-10-31T02:06:32;3.67;;;2.17;;
19260;SDS011;9764;48.114;11.670;2022-10-31T02:09:05;4.47;;;2.15;;
19260;SDS011;9764;48.114;11.670;2022-10-31T02:11:34;4.45;;;2.08;;
19260;SDS011;9764;48.114;11.670;2022-10-31T02:14:04;3.60;;;2.03;;
19260;SDS011;9764;48.114;11.670;2022-10-31T02:16:32;4.32;;;1.95;;
19260;SDS011;9764;48.114;11.670;2022-10-31T02:19:02;4.78;;;2.28;;
19260;SDS011;9764;48.114;11.670;2022-10-31T02:21:40;3.08;;;1.80;;
19260;SDS011;9764;48.114;11.670;2022-10-31T02:27:27;3.10;;;1.95;;
19260;SDS011;9764;48.114;11.670;2022-10-31T02:30:16;3.03;;;1.73;;
19260;SDS011;9764;48.114;11.670;2022-10-31T02:32:53;3.00;;;2.00;;
19260;SDS011;9764;48.114;11.670;2022-10-31T02:35:31;5.20;;;1.95;;
19260;SDS011;9764;48.114;11.670;2022-10-31T02:38:12;3.55;;;2.00;;
19260;SDS011;9764;48.114;11.670;2022-10-31T02:40:49;3.40;;;1.98;;
19260;SDS011;9764;48.114;11.670;2022-10-31T02:43:31;3.22;;;1.70;;
19260;SDS011;9764;48.114;11.670;2022-10-31T02:46:08;3.05;;;1.88;;
19260;SDS011;9764;48.114;11.670;2022-10-31T02:48:44;2.63;;;1.92;;
19260;SDS011;9764;48.114;11.670;2022-10-31T02:51:13;2.20;;;2.00;;
19260;SDS011;9764;48.114;11.670;2022-10-31T02:53:43;4.35;;;2.40;;
19260;SDS011;9764;48.114;11.670;2022-10-31T02:56:12;4.35;;;1.80;;
19260;SDS011;9764;48.114;11.670;2022-10-31T02:58:44;3.97;;;1.73;;
19260;SDS011;9764;48.114;11.670;2022-10-31T03:07:21;5.53;;;1.98;;
19260;SDS011;9764;48.114;11.670;2022-10-31T03:10:00;3.95;;;2.10;;
19260;SDS011;9764;48.114;11.670;2022-10-31T03:12:38;4.13;;;2.17;;
19260;SDS011;9764;48.114;11.670;2022-10-31T03:15:17;2.55;;;1.90;;
19260;SDS011;9764;48.114;11.670;2022-10-31T03:18:04;4.55;;;1.70;;
19260;SDS011;9764;48.114;11.670;2022-10-31T03:20:40;3.30;;;1.80;;
19260;SDS011;9764;48.114;11.670;2022-10-31T03:23:15;3.75;;;1.85;;
19260;SDS011;9764;48.114;11.670;2022-10-31T03:25:50;4.85;;;2.00;;
19260;SDS011;9764;48.114;11.670;2022-10-31T03:28:26;6.78;;;2.00;;
19260;SDS011;9764;48.114;11.670;2022-10-31T03:30:57;4.65;;;2.00;;
19260;SDS011;9764;48.114;11.670;2022-10-31T03:33:33;4.78;;;2.15;;
19260;SDS011;9764;48.114;11.670;2022-10-31T03:36:05;3.03;;;1.95;;
19260;SDS011;9764;48.114;11.670;2022-10-31T03:38:39;3.90;;;1.85;;
19260;SDS011;9764;48.114;11.670;2022-10-31T03:41:11;2.83;;;1.80;;
19260;SDS011;9764;48.114;11.670;2022-10-31T03:43:46;2.63;;;1.70;;
19260;SDS011;9764;48.114;11.670;2022-10-31T03:46:22;6.15;;;2.20;;
19260;SDS011;9764;48.114;11.670;2022-10-31T03:48:53;4.97;;;2.15;;
19260;SDS011;9764;48.114;11.670;2022-10-31T03:51:25;6.75;;;2.00;;
19260;SDS011;9764;48.114;11.670;2022-10-31T03:54:00;6.47;;;1.73;;
19260;SDS011;9764;48.114;11.670;2022-10-31T03:56:33;4.55;;;1.92;;
19260;SDS011;9764;48.114;11.670;2022-10-31T03:59:05;12.27;;;2.55;;
19260;SDS011;9764;48.114;11.670;2022-10-31T04:01:43;6.05;;;2.33;;
19260;SDS011;9764;48.114;11.670;2022-10-31T04:04:15;7.72;;;2.28;;
19260;SDS011;9764;48.114;11.670;2022-10-31T04:06:45;8.32;;;1.80;;
19260;SDS011;9764;48.114;11.670;2022-10-31T04:09:14;9.15;;;2.63;;
19260;SDS011;9764;48.114;11.670;2022-10-31T04:11:46;4.88;;;2.03;;
19260;SDS011;9764;48.114;11.670;2022-10-31T04:14:36;4.00;;;1.80;;
19260;SDS011;9764;48.114;11.670;2022-10-31T04:17:07;2.17;;;1.52;;
19260;SDS011;9764;48.114;11.670;2022-10-31T04:19:41;4.40;;;1.70;;
19260;SDS011;9764;48.114;11.670;2022-10-31T04:22:10;2.92;;;1.85;;
19260;SDS011;9764;48.114;11.670;2022-10-31T04:24:39;3.05;;;1.60;;
19260;SDS011;9764;48.114;11.670;2022-10-31T04:27:12;5.53;;;1.92;;
19260;SDS011;9764;48.114;11.670;2022-10-31T04:29:40;4.50;;;1.88;;
19260;SDS011;9764;48.114;11.670;2022-10-31T04:32:14;7.10;;;3.10;;
19260;SDS011;9764;48.114;11.670;2022-10-31T04:34:42;2.17;;;1.60;;
19260;SDS011;9764;48.114;11.670;2022-10-31T04:37:12;3.70;;;1.98;;
19260;SDS011;9764;48.114;11.670;2022-10-31T04:39:40;3.50;;;1.80;;
19260;SDS011;9764;48.114;11.670;2022-10-31T04:42:28;4.57;;;1.90;;
19260;SDS011;9764;48.114;11.670;2022-10-31T04:45:00;2.78;;;1.85;;
19260;SDS011;9764;48.114;11.670;2022-10-31T04:47:31;6.90;;;2.22;;
19260;SDS011;9764;48.114;11.670;2022-10-31T04:50:00;2.83;;;1.60;;
19260;SDS011;9764;48.114;11.670;2022-10-31T04:52:31;4.50;;;1.75;;
19260;SDS011;9764;48.114;11.670;2022-10-31T04:55:01;4.43;;;1.83;;
19260;SDS011;9764;48.114;11.670;2022-10-31T04:57:48;5.68;;;1.90;;
19260;SDS011;9764;48.114;11.670;2022-10-31T05:00:19;3.65;;;1.95;;
19260;SDS011;9764;48.114;11.670;2022-10-31T05:02:49;4.25;;;2.10;;
19260;SDS011;9764;48.114;11.670;2022-10-31T05:05:20;3.42;;;2.00;;
19260;SDS011;9764;48.114;11.670;2022-10-31T05:07:51;4.07;;;1.92;;
19260;SDS011;9764;48.114;11.670;2022-10-31T05:10:23;3.50;;;1.67;;
19260;SDS011;9764;48.114;11.670;2022-10-31T05:12:54;4.60;;;2.05;;
19260;SDS011;9764;48.114;11.670;2022-10-31T05:15:30;4.90;;;2.15;;
19260;SDS011;9764;48.114;11.670;2022-10-31T05:18:17;3.28;;;1.60;;
19260;SDS011;9764;48.114;11.670;2022-10-31T05:21:04;2.22;;;1.67;;
19260;SDS011;9764;48.114;11.670;2022-10-31T05:23:35;4.05;;;2.03;;
19260;SDS011;9764;48.114;11.670;2022-10-31T05:26:06;4.60;;;1.60;;
19260;SDS011;9764;48.114;11.670;2022-10-31T05:28:34;2.05;;;1.58;;
19260;SDS011;9764;48.114;11.670;2022-10-31T05:31:03;5.60;;;1.70;;
19260;SDS011;9764;48.114;11.670;2022-10-31T05:33:31;3.50;;;1.70;;
19260;SDS011;9764;48.114;11.670;2022-10-31T05:36:18;3.67;;;1.67;;
19260;SDS011;9764;48.114;11.670;2022-10-31T05:38:54;3.65;;;1.60;;
19260;SDS011;9764;48.114;11.670;2022-10-31T05:41:24;3.83;;;1.73;;
19260;SDS011;9764;48.114;11.670;2022-10-31T05:44:02;5.30;;;2.10;;
19260;SDS011;9764;48.114;11.670;2022-10-31T05:46:37;4.20;;;2.10;;
19260;SDS011;9764;48.114;11.670;2022-10-31T05:49:25;3.83;;;1.55;;
19260;SDS011;9764;48.114;11.670;2022-10-31T05:52:15;3.30;;;1.90;;
19260;SDS011;9764;48.114;11.670;2022-10-31T05:54:53;2.65;;;1.73;;
19260;SDS011;9764;48.114;11.670;2022-10-31T05:57:24;8.10;;;2.10;;
19260;SDS011;9764;48.114;11.670;2022-10-31T05:59:53;3.88;;;1.58;;
19260;SDS011;9764;48.114;11.670;2022-10-31T06:02:22;4.38;;;1.60;;
19260;SDS011;9764;48.114;11.670;2022-10-31T06:05:20;3.28;;;1.70;;
19260;SDS011;9764;48.114;11.670;2022-10-31T06:07:49;4.43;;;1.80;;
19260;SDS011;9764;48.114;11.670;2022-10-31T06:10:22;2.92;;;1.67;;
19260;SDS011;9764;48.114;11.670;2022-10-31T06:12:53;3.13;;;1.77;;
19260;SDS011;9764;48.114;11.670;2022-10-31T06:15:33;4.78;;;1.88;;
19260;SDS011;9764;48.114;11.670;2022-10-31T06:18:02;2.10;;;1.45;;
19260;SDS011;9764;48.114;11.670;2022-10-31T06:20:35;3.85;;;1.80;;
19260;SDS011;9764;48.114;11.670;2022-10-31T06:23:10;3.97;;;2.40;;
19260;SDS011;9764;48.114;11.670;2022-10-31T06:25:41;8.55;;;2.75;;
19260;SDS011;9764;48.114;11.670;2022-10-31T06:28:11;4.93;;;2.63;;
19260;SDS011;9764;48.114;11.670;2022-10-31T06:30:52;5.30;;;3.17;;
19260;SDS011;9764;48.114;11.670;2022-10-31T06:33:21;7.80;;;3.72;;
19260;SDS011;9764;48.114;11.670;2022-10-31T06:36:09;4.85;;;3.17;;
19260;SDS011;9764;48.114;11.670;2022-10-31T06:38:38;4.88;;;3.20;;
19260;SDS011;9764;48.114;11.670;2022-10-31T06:41:10;4.80;;;2.95;;
19260;SDS011;9764;48.114;11.670;2022-10-31T06:43:42;4.60;;;2.60;;
19260;SDS011;9764;48.114;11.670;2022-10-31T06:46:48;6.10;;;3.28;;
19260;SDS011;9764;48.114;11.670;2022-10-31T06:49:45;4.70;;;3.40;;
19260;SDS011;9764;48.114;11.670;2022-10-31T06:52:19;3.60;;;3.05;;
19260;SDS011;9764;48.114;11.670;2022-10-31T06:54:50;5.50;;;3.20;;
19260;SDS011;9764;48.114;11.670;2022-10-31T06:57:21;6.78;;;2.75;;
19260;SDS011;9764;48.114;11.670;2022-10-31T06:59:49;3.65;;;2.95;;
19260;SDS011;9764;48.114;11.670;2022-10-31T07:02:38;6.90;;;3.25;;
19260;SDS011;9764;48.114;11.670;2022-10-31T07:05:07;6.40;;;3.40;;
19260;SDS011;9764;48.114;11.670;2022-10-31T07:07:40;6.10;;;2.80;;
19260;SDS011;9764;48.114;11.670;2022-10-31T07:10:17;7.15;;;3.30;;
19260;SDS011;9764;48.114;11.670;2022-10-31T07:12:58;7.00;;;2.88;;
19260;SDS011;9764;48.114;11.670;2022-10-31T07:15:32;4.75;;;3.10;;
19260;SDS011;9764;48.114;11.670;2022-10-31T07:18:01;3.40;;;2.72;;
19260;SDS011;9764;48.114;11.670;2022-10-31T07:20:32;9.02;;;3.40;;
19260;SDS011;9764;48.114;11.670;2022-10-31T07:23:02;8.05;;;3.30;;
19260;SDS011;9764;48.114;11.670;2022-10-31T07:25:32;6.07;;;3.00;;
19260;SDS011;9764;48.114;11.670;2022-10-31T07:28:10;8.95;;;3.78;;
19260;SDS011;9764;48.114;11.670;2022-10-31T07:30:49;7.68;;;3.40;;
19260;SDS011;9764;48.114;11.670;2022-10-31T07:33:19;7.15;;;3.45;;
19260;SDS011;9764;48.114;11.670;2022-10-31T07:36:10;7.13;;;2.80;;
19260;SDS011;9764;48.114;11.670;2022-10-31T07:38:41;8.00;;;3.25;;
19260;SDS011;9764;48.114;11.670;2022-10-31T07:41:10;4.63;;;2.90;;
19260;SDS011;9764;48.114;11.670;2022-10-31T07:43:43;6.80;;;2.75;;
19260;SDS011;9764;48.114;11.670;2022-10-31T07:46:30;5.78;;;2.97;;
19260;SDS011;9764;48.114;11.670;2022-10-31T07:49:36;6.47;;;2.90;;
19260;SDS011;9764;48.114;11.670;2022-10-31T07:52:24;5.03;;;2.67;;
19260;SDS011;9764;48.114;11.670;2022-10-31T07:54:59;6.30;;;3.17;;
19260;SDS011;9764;48.114;11.670;2022-10-31T07:57:38;9.80;;;3.42;;
19260;SDS011;9764;48.114;11.670;2022-10-31T08:00:09;4.70;;;2.65;;
19260;SDS011;9764;48.114;11.670;2022-10-31T08:02:40;6.63;;;2.97;;
19260;SDS011;9764;48.114;11.670;2022-10-31T08:05:32;6.85;;;2.80;;
19260;SDS011;9764;48.114;11.670;2022-10-31T08:08:30;6.40;;;2.67;;
19260;SDS011;9764;48.114;11.670;2022-10-31T08:11:04;6.10;;;2.78;;
19260;SDS011;9764;48.114;11.670;2022-10-31T08:13:35;13.45;;;2.55;;
19260;SDS011;9764;48.114;11.670;2022-10-31T08:16:05;3.90;;;2.75;;
19260;SDS011;9764;48.114;11.670;2022-10-31T08:18:39;2.78;;;2.47;;
19260;SDS011;9764;48.114;11.670;2022-10-31T08:21:11;6.75;;;2.45;;
19260;SDS011;9764;48.114;11.670;2022-10-31T08:23:41;5.82;;;2.83;;
19260;SDS011;9764;48.114;11.670;2022-10-31T08:26:09;3.58;;;2.47;;
19260;SDS011;9764;48.114;11.670;2022-10-31T08:28:38;3.88;;;2.22;;
19260;SDS011;9764;48.114;11.670;2022-10-31T08:31:08;5.10;;;2.70;;
19260;SDS011;9764;48.114;11.670;2022-10-31T08:33:39;5.00;;;2.25;;
19260;SDS011;9764;48.114;11.670;2022-10-31T08:36:11;4.18;;;2.85;;
19260;SDS011;9764;48.114;11.670;2022-10-31T08:38:50;4.47;;;2.28;;
19260;SDS011;9764;48.114;11.670;2022-10-31T08:41:27;6.15;;;2.72;;
19260;SDS011;9764;48.114;11.670;2022-10-31T08:43:55;4.35;;;2.35;;
19260;SDS011;9764;48.114;11.670;2022-10-31T08:46:25;4.10;;;2.33;;
19260;SDS011;9764;48.114;11.670;2022-10-31T08:48:54;3.97;;;2.28;;
19260;SDS011;9764;48.114;11.670;2022-10-31T08:51:27;3.72;;;1.92;;
19260;SDS011;9764;48.114;11.670;2022-10-31T08:53:56;6.15;;;2.60;;
19260;SDS011;9764;48.114;11.670;2022-10-31T08:56:43;5.55;;;2.80;;
19260;SDS011;9764;48.114;11.670;2022-10-31T08:59:26;3.58;;;2.83;;
19260;SDS011;9764;48.114;11.670;2022-10-31T09:02:20;3.90;;;2.67;;
19260;SDS011;9764;48.114;11.670;2022-10-31T09:04:52;3.50;;;2.63;;
19260;SDS011;9764;48.114;11.670;2022-10-31T09:07:21;4.60;;;2.33;;
19260;SDS011;9764;48.114;11.670;2022-10-31T09:09:49;3.78;;;2.33;;
19260;SDS011;9764;48.114;11.670;2022-10-31T09:12:18;7.00;;;2.85;;
19260;SDS011;9764;48.114;11.670;2022-10-31T09:15:05;5.13;;;2.40;;
19260;SDS011;9764;48.114;11.670;2022-10-31T09:17:40;4.43;;;2.40;;
19260;SDS011;9764;48.114;11.670;2022-10-31T09:20:35;4.88;;;2.70;;
19260;SDS011;9764;48.114;11.670;2022-10-31T09:23:05;5.25;;;2.95;;
19260;SDS011;9764;48.114;11.670;2022-10-31T09:25:37;3.92;;;3.00;;
19260;SDS011;9764;48.114;11.670;2022-10-31T09:28:24;6.13;;;3.60;;
19260;SDS011;9764;48.114;11.670;2022-10-31T09:30:55;5.95;;;3.50;;
19260;SDS011;9764;48.114;11.670;2022-10-31T09:33:45;7.88;;;3.58;;
19260;SDS011;9764;48.114;11.670;2022-10-31T09:36:35;10.15;;;4.07;;
19260;SDS011;9764;48.114;11.670;2022-10-31T09:39:08;15.65;;;4.22;;
19260;SDS011;9764;48.114;11.670;2022-10-31T09:41:48;10.43;;;4.40;;
19260;SDS011;9764;48.114;11.670;2022-10-31T09:44:36;7.70;;;4.22;;
19260;SDS011;9764;48.114;11.670;2022-10-31T09:47:37;9.23;;;4.20;;
19260;SDS011;9764;48.114;11.670;2022-10-31T09:50:35;8.70;;;4.30;;
19260;SDS011;9764;48.114;11.670;2022-10-31T09:53:40;9.55;;;4.10;;
19260;SDS011;9764;48.114;11.670;2022-10-31T09:56:18;7.32;;;3.70;;
19260;SDS011;9764;48.114;11.670;2022-10-31T09:58:50;9.63;;;4.38;;
19260;SDS011;9764;48.114;11.670;2022-10-31T10:01:28;9.25;;;4.32;;
19260;SDS011;9764;48.114;11.670;2022-10-31T10:04:03;7.70;;;3.72;;
19260;SDS011;9764;48.114;11.670;2022-10-31T10:07:16;8.48;;;4.32;;
19260;SDS011;9764;48.114;11.670;2022-10-31T10:10:24;8.55;;;3.75;;
19260;SDS011;9764;48.114;11.670;2022-10-31T10:13:24;7.90;;;3.70;;
19260;SDS011;9764;48.114;11.670;2022-10-31T10:16:14;9.95;;;3.88;;
19260;SDS011;9764;48.114;11.670;2022-10-31T10:18:52;9.02;;;3.80;;
19260;SDS011;9764;48.114;11.670;2022-10-31T10:21:39;12.32;;;3.78;;
19260;SDS011;9764;48.114;11.670;2022-10-31T10:24:23;8.93;;;3.13;;
19260;SDS011;9764;48.114;11.670;2022-10-31T10:27:04;10.90;;;3.60;;
19260;SDS011;9764;48.114;11.670;2022-10-31T10:29:50;6.72;;;3.80;;
19260;SDS011;9764;48.114;11.670;2022-10-31T10:32:24;9.30;;;3.50;;
19260;SDS011;9764;48.114;11.670;2022-10-31T10:34:54;7.88;;;3.50;;
19260;SDS011;9764;48.114;11.670;2022-10-31T10:37:28;11.70;;;3.97;;
19260;SDS011;9764;48.114;11.670;2022-10-31T10:40:05;10.60;;;3.75;;
19260;SDS011;9764;48.114;11.670;2022-10-31T10:42:38;7.68;;;3.38;;
19260;SDS011;9764;48.114;11.670;2022-10-31T10:45:24;6.30;;;3.38;;
19260;SDS011;9764;48.114;11.670;2022-10-31T10:48:12;7.43;;;3.65;;
19260;SDS011;9764;48.114;11.670;2022-10-31T10:50:46;10.90;;;4.00;;
19260;SDS011;9764;48.114;11.670;2022-10-31T10:53:24;8.55;;;3.75;;
19260;SDS011;9764;48.114;11.670;2022-10-31T10:56:10;7.45;;;3.25;;
19260;SDS011;9764;48.114;11.670;2022-10-31T10:58:43;7.05;;;3.10;;
19260;SDS011;9764;48.114;11.670;2022-10-31T11:01:13;5.90;;;3.30;;
19260;SDS011;9764;48.114;11.670;2022-10-31T11:03:42;6.68;;;3.90;;
19260;SDS011;9764;48.114;11.670;2022-10-31T11:09:10;7.38;;;3.53;;
19260;SDS011;9764;48.114;11.670;2022-10-31T11:11:40;6.40;;;3.40;;
19260;SDS011;9764;48.114;11.670;2022-10-31T11:14:11;5.45;;;3.17;;
19260;SDS011;9764;48.114;11.670;2022-10-31T11:16:43;3.83;;;3.05;;
19260;SDS011;9764;48.114;11.670;2022-10-31T11:19:16;5.60;;;3.33;;
19260;SDS011;9764;48.114;11.670;2022-10-31T11:21:47;4.97;;;3.13;;
19260;SDS011;9764;48.114;11.670;2022-10-31T11:24:19;4.50;;;3.13;;
19260;SDS011;9764;48.114;11.670;2022-10-31T11:26:50;6.55;;;3.33;;
19260;SDS011;9764;48.114;11.670;2022-10-31T11:29:20;6.10;;;3.28;;
19260;SDS011;9764;48.114;11.670;2022-10-31T11:31:52;9.38;;;3.13;;
19260;SDS011;9764;48.114;11.670;2022-10-31T11:34:26;8.75;;;3.20;;
19260;SDS011;9764;48.114;11.670;2022-10-31T11:36:59;10.30;;;3.22;;
19260;SDS011;9764;48.114;11.670;2022-10-31T11:39:32;9.68;;;3.38;;
19260;SDS011;9764;48.114;11.670;2022-10-31T11:42:08;11.73;;;3.22;;
19260;SDS011;9764;48.114;11.670;2022-10-31T11:44:40;8.57;;;3.42;;
19260;SDS011;9764;48.114;11.670;2022-10-31T11:47:12;4.03;;;2.55;;
19260;SDS011;9764;48.114;11.670;2022-10-31T11:49:44;6.50;;;3.20;;
19260;SDS011;9764;48.114;11.670;2022-10-31T11:52:16;6.38;;;2.80;;
19260;SDS011;9764;48.114;11.670;2022-10-31T11:54:48;8.30;;;3.20;;
19260;SDS011;9764;48.114;11.670;2022-10-31T11:57:26;6.57;;;3.00;;
19260;SDS011;9764;48.114;11.670;2022-10-31T11:59:57;9.48;;;3.20;;
19260;SDS011;9764;48.114;11.670;2022-10-31T12:02:26;7.20;;;2.90;;
19260;SDS011;9764;48.114;11.670;2022-10-31T12:04:58;8.43;;;2.95;;
19260;SDS011;9764;48.114;11.670;2022-10-31T12:07:33;8.43;;;2.72;;
19260;SDS011;9764;48.114;11.670;2022-10-31T12:10:04;4.13;;;2.65;;
19260;SDS011;9764;48.114;11.670;2022-10-31T12:12:52;5.53;;;2.95;;
19260;SDS011;9764;48.114;11.670;2022-10-31T12:15:31;8.18;;;2.95;;
19260;SDS011;9764;48.114;11.670;2022-10-31T12:18:14;7.45;;;2.70;;
19260;SDS011;9764;48.114;11.670;2022-10-31T12:20:55;5.20;;;2.25;;
19260;SDS011;9764;48.114;11.670;2022-10-31T12:23:35;6.43;;;2.97;;
19260;SDS011;9764;48.114;11.670;2022-10-31T12:26:15;6.32;;;2.97;;
19260;SDS011;9764;48.114;11.670;2022-10-31T12:28:57;8.20;;;3.25;;
19260;SDS011;9764;48.114;11.670;2022-10-31T12:31:41;4.55;;;2.40;;
19260;SDS011;9764;48.114;11.670;2022-10-31T12:37:30;8.73;;;3.05;;
19260;SDS011;9764;48.114;11.670;2022-10-31T12:40:10;7.30;;;2.95;;
19260;SDS011;9764;48.114;11.670;2022-10-31T12:42:58;4.43;;;2.80;;
19260;SDS011;9764;48.114;11.670;2022-10-31T12:45:39;6.90;;;2.83;;
19260;SDS011;9764;48.114;11.670;2022-10-31T12:48:24;7.30;;;2.70;;
19260;SDS011;9764;48.114;11.670;2022-10-31T12:51:09;5.43;;;2.60;;
19260;SDS011;9764;48.114;11.670;2022-10-31T12:53:47;6.05;;;2.80;;
19260;SDS011;9764;48.114;11.670;2022-10-31T12:56:31;6.30;;;2.90;;
19260;SDS011;9764;48.114;11.670;2022-10-31T12:59:09;7.43;;;2.83;;
19260;SDS011;9764;48.114;11.670;2022-10-31T13:01:47;10.88;;;3.22;;
19260;SDS011;9764;48.114;11.670;2022-10-31T13:04:28;3.63;;;2.30;;
19260;SDS011;9764;48.114;11.670;2022-10-31T13:07:04;3.70;;;2.40;;
19260;SDS011;9764;48.114;11.670;2022-10-31T13:09:38;3.72;;;2.58;;
19260;SDS011;9764;48.114;11.670;2022-10-31T13:12:14;5.78;;;2.85;;
19260;SDS011;9764;48.114;11.670;2022-10-31T13:14:46;4.47;;;2.97;;
19260;SDS011;9764;48.114;11.670;2022-10-31T13:17:21;3.42;;;2.35;;
19260;SDS011;9764;48.114;11.670;2022-10-31T13:19:54;4.90;;;2.38;;
19260;SDS011;9764;48.114;11.670;2022-10-31T13:22:32;8.02;;;3.45;;
19260;SDS011;9764;48.114;11.670;2022-10-31T13:25:03;4.72;;;2.45;;
19260;SDS011;9764;48.114;11.670;2022-10-31T13:27:41;5.70;;;2.47;;
19260;SDS011;9764;48.114;11.670;2022-10-31T13:30:13;6.43;;;2.38;;
19260;SDS011;9764;48.114;11.670;2022-10-31T13:32:46;3.72;;;2.78;;
19260;SDS011;9764;48.114;11.670;2022-10-31T13:35:19;7.80;;;2.60;;
19260;SDS011;9764;48.114;11.670;2022-10-31T13:37:56;5.38;;;2.70;;
19260;SDS011;9764;48.114;11.670;2022-10-31T13:40:40;5.97;;;2.78;;
19260;SDS011;9764;48.114;11.670;2022-10-31T13:43:18;8.52;;;2.75;;
19260;SDS011;9764;48.114;11.670;2022-10-31T13:45:54;5.88;;;2.50;;
19260;SDS011;9764;48.114;11.670;2022-10-31T13:48:40;5.82;;;2.58;;
19260;SDS011;9764;48.114;11.670;2022-10-31T13:51:09;5.07;;;2.58;;
19260;SDS011;9764;48.114;11.670;2022-10-31T13:53:43;6.97;;;2.80;;
19260;SDS011;9764;48.114;11.670;2022-10-31T13:56:14;3.85;;;2.38;;
19260;SDS011;9764;48.114;11.670;2022-10-31T13:59:15;5.07;;;2.60;;
19260;SDS011;9764;48.114;11.670;2022-10-31T14:01:50;3.97;;;2.47;;
19260;SDS011;9764;48.114;11.670;2022-10-31T14:04:23;4.00;;;2.60;;
19260;SDS011;9764;48.114;11.670;2022-10-31T14:06:55;5.93;;;2.80;;
19260;SDS011;9764;48.114;11.670;2022-10-31T14:09:31;3.58;;;2.53;;
19260;SDS011;9764;48.114;11.670;2022-10-31T14:12:02;5.90;;;2.40;;
19260;SDS011;9764;48.114;11.670;2022-10-31T14:14:35;5.45;;;2.00;;
19260;SDS011;9764;48.114;11.670;2022-10-31T14:17:16;3.67;;;2.22;;
19260;SDS011;9764;48.114;11.670;2022-10-31T14:23:12;3.28;;;2.15;;
19260;SDS011;9764;48.114;11.670;2022-10-31T14:26:05;5.68;;;2.47;;
19260;SDS011;9764;48.114;11.670;2022-10-31T14:28:35;5.22;;;2.50;;
19260;SDS011;9764;48.114;11.670;2022-10-31T14:31:21;6.65;;;2.75;;
19260;SDS011;9764;48.114;11.670;2022-10-31T14:33:58;5.65;;;2.28;;
19260;SDS011;9764;48.114;11.670;2022-10-31T14:36:29;4.95;;;2.55;;
19260;SDS011;9764;48.114;11.670;2022-10-31T14:39:09;5.15;;;2.30;;
19260;SDS011;9764;48.114;11.670;2022-10-31T14:41:47;4.70;;;2.53;;
19260;SDS011;9764;48.114;11.670;2022-10-31T14:44:37;3.85;;;2.10;;
19260;SDS011;9764;48.114;11.670;2022-10-31T14:47:30;6.25;;;2.88;;
19260;SDS011;9764;48.114;11.670;2022-10-31T14:50:09;3.40;;;2.10;;
19260;SDS011;9764;48.114;11.670;2022-10-31T14:52:57;5.05;;;2.38;;
19260;SDS011;9764;48.114;11.670;2022-10-31T14:55:31;6.25;;;2.30;;
19260;SDS011;9764;48.114;11.670;2022-10-31T14:58:16;4.38;;;2.40;;
19260;SDS011;9764;48.114;11.670;2022-10-31T15:00:52;8.77;;;3.03;;
19260;SDS011;9764;48.114;11.670;2022-10-31T15:03:25;3.00;;;1.90;;
19260;SDS011;9764;48.114;11.670;2022-10-31T15:05:58;3.85;;;2.38;;
19260;SDS011;9764;48.114;11.670;2022-10-31T15:08:31;3.80;;;2.20;;
19260;SDS011;9764;48.114;11.670;2022-10-31T15:11:11;6.20;;;2.70;;
19260;SDS011;9764;48.114;11.670;2022-10-31T15:13:41;4.75;;;2.20;;
19260;SDS011;9764;48.114;11.670;2022-10-31T15:16:15;6.55;;;2.28;;
19260;SDS011;9764;48.114;11.670;2022-10-31T15:18:47;7.32;;;2.45;;
19260;SDS011;9764;48.114;11.670;2022-10-31T15:21:19;4.10;;;2.03;;
19260;SDS011;9764;48.114;11.670;2022-10-31T15:23:50;4.05;;;1.95;;
19260;SDS011;9764;48.114;11.670;2022-10-31T15:26:25;4.47;;;2.00;;
19260;SDS011;9764;48.114;11.670;2022-10-31T15:29:00;6.90;;;2.30;;
19260;SDS011;9764;48.114;11.670;2022-10-31T15:31:31;6.38;;;2.60;;
19260;SDS011;9764;48.114;11.670;2022-10-31T15:34:00;6.25;;;2.40;;
19260;SDS011;9764;48.114;11.670;2022-10-31T15:36:33;4.13;;;2.10;;
19260;SDS011;9764;48.114;11.670;2022-10-31T15:39:04;4.30;;;2.50;;
19260;SDS011;9764;48.114;11.670;2022-10-31T15:41:39;6.13;;;2.35;;
19260;SDS011;9764;48.114;11.670;2022-10-31T15:44:21;4.43;;;2.22;;
19260;SDS011;9764;48.114;11.670;2022-10-31T15:46:53;6.05;;;2.63;;
19260;SDS011;9764;48.114;11.670;2022-10-31T15:49:28;4.45;;;2.28;;
19260;SDS011;9764;48.114;11.670;2022-10-31T15:52:08;6.20;;;2.50;;
19260;SDS011;9764;48.114;11.670;2022-10-31T15:54:43;5.88;;;2.40;;
19260;SDS011;9764;48.114;11.670;2022-10-31T15:57:16;6.22;;;2.90;;